createdAt,value
2022-08-22T00:02:53.437Z,78.18
2022-08-22T00:06:24.332Z,83.46
2022-08-22T00:09:41.219Z,87.75
2022-08-22T00:12:50.584Z,85.36
2022-08-22T00:15:52.369Z,88.72
2022-08-22T00:19:14.417Z,86.85
2022-08-22T00:22:20.847Z,83.93
2022-08-22T00:25:35.144Z,85.60
2022-08-22T00:29:00.302Z,84.68
2022-08-22T00:32:02.120Z,85.05
2022-08-22T00:35:03.909Z,88.71
2022-08-22T00:38:15.271Z,85.06
2022-08-22T00:41:24.463Z,84.61
2022-08-22T00:44:29.410Z,83.71
2022-08-22T00:47:37.369Z,79.71
2022-08-22T00:50:43.909Z,84.37
2022-08-22T00:54:06.767Z,81.11
2022-08-22T00:57:23.786Z,79.63
2022-08-22T01:00:27.154Z,82.48
2022-08-22T01:03:49.675Z,81.31
2022-08-22T01:07:24.055Z,83.35
2022-08-22T01:10:51.051Z,82.14
2022-08-22T01:13:55.931Z,81.52
2022-08-22T01:17:00.834Z,80.88
2022-08-22T01:20:21.321Z,82.55
2022-08-22T01:23:41.727Z,78.85
2022-08-22T01:26:46.646Z,83.90
2022-08-22T01:29:51.232Z,80.17
2022-08-22T01:33:12.086Z,82.02
2022-08-22T01:36:16.665Z,78.54
2022-08-22T01:39:27.608Z,81.35
2022-08-22T01:42:48.016Z,79.89
2022-08-22T01:45:52.514Z,83.15
2022-08-22T01:48:57.342Z,83.79
2022-08-22T01:52:08.309Z,82.17
2022-08-22T01:55:10.110Z,82.98
2022-08-22T01:58:19.731Z,84.12
2022-08-22T02:01:24.442Z,83.19
2022-08-22T02:04:38.232Z,83.75
2022-08-22T02:07:49.114Z,82.36
2022-08-22T02:10:56.876Z,82.15
2022-08-22T02:14:14.076Z,81.81
2022-08-22T02:17:15.967Z,80.43
2022-08-22T02:20:17.901Z,77.81
2022-08-22T02:23:30.657Z,78.74
2022-08-22T02:26:38.639Z,82.15
2022-08-22T02:29:42.634Z,80.28
2022-08-22T02:32:46.358Z,80.69
2022-08-22T02:36:00.049Z,78.58
2022-08-22T02:39:07.555Z,79.70
2022-08-22T02:42:12.459Z,79.25
2022-08-22T02:45:33.379Z,80.87
2022-08-22T02:48:35.633Z,81.38
2022-08-22T02:51:56.091Z,77.21
2022-08-22T02:55:03.618Z,74.61
2022-08-22T02:58:12.042Z,78.45
2022-08-22T03:01:17.952Z,80.22
2022-08-22T03:04:22.897Z,76.79
2022-08-22T03:07:27.304Z,77.87
2022-08-22T03:10:35.696Z,78.24
2022-08-22T03:13:46.734Z,78.15
2022-08-22T03:16:55.827Z,80.56
2022-08-22T03:20:04.418Z,79.49
2022-08-22T03:23:25.413Z,81.20
2022-08-22T03:26:30.319Z,81.85
2022-08-22T03:29:40.569Z,81.16
2022-08-22T03:32:56.077Z,79.62
2022-08-22T03:36:16.342Z,76.89
2022-08-22T03:39:19.024Z,79.60
2022-08-22T03:42:25.392Z,75.44
2022-08-22T03:45:30.642Z,78.60
2022-08-22T03:48:55.796Z,75.17
2022-08-22T03:52:00.388Z,80.07
2022-08-22T03:55:02.166Z,76.30
2022-08-22T03:58:22.299Z,78.06
2022-08-22T04:01:36.146Z,79.67
2022-08-22T04:04:53.086Z,79.65
2022-08-22T04:07:54.983Z,82.41
2022-08-22T04:11:03.710Z,79.31
2022-08-22T04:14:24.366Z,78.34
2022-08-22T04:17:29.227Z,78.40
2022-08-22T04:20:50.362Z,74.82
2022-08-22T04:23:57.439Z,73.80
2022-08-22T04:27:22.548Z,79.04
2022-08-22T04:30:36.435Z,78.10
2022-08-22T04:33:45.369Z,76.29
2022-08-22T04:36:50.113Z,75.12
2022-08-22T04:40:12.253Z,79.10
2022-08-22T04:43:20.467Z,80.03
2022-08-22T04:46:32.123Z,78.88
2022-08-22T04:49:40.656Z,79.61
2022-08-22T04:52:48.530Z,75.33
2022-08-22T04:56:06.773Z,78.77
2022-08-22T04:59:11.407Z,79.01
2022-08-22T05:02:13.680Z,77.82
2022-08-22T05:05:25.734Z,76.01
2022-08-22T05:08:30.506Z,73.72
2022-08-22T05:11:32.464Z,78.37
2022-08-22T05:14:38.923Z,73.06
2022-08-22T05:17:41.176Z,75.08
2022-08-22T05:20:44.767Z,72.78
2022-08-22T05:23:55.163Z,72.99
2022-08-22T05:26:57.353Z,73.98
2022-08-22T05:30:04.380Z,78.53
2022-08-22T05:33:18.553Z,73.11
2022-08-22T05:36:31.117Z,75.57
2022-08-22T05:39:32.998Z,73.60
2022-08-22T05:42:36.737Z,71.95
2022-08-22T05:45:38.989Z,73.18
2022-08-22T05:51:55.854Z,75.42
2022-08-22T05:54:59.270Z,74.63
2022-08-22T05:58:10.821Z,72.00
2022-08-22T06:01:27.765Z,70.96
2022-08-22T06:04:53.886Z,73.30
2022-08-22T06:08:23.503Z,72.65
2022-08-22T06:11:33.678Z,70.56
2022-08-22T06:14:42.244Z,71.51
2022-08-22T06:17:45.789Z,72.88
2022-08-22T06:20:48.568Z,72.23
2022-08-22T06:23:53.224Z,70.47
2022-08-22T06:26:57.312Z,75.93
2022-08-22T06:30:00.781Z,73.57
2022-08-22T06:33:06.988Z,73.84
2022-08-22T06:36:34.019Z,73.63
2022-08-22T06:39:37.764Z,72.38
2022-08-22T06:42:41.218Z,73.38
2022-08-22T06:45:43.225Z,72.98
2022-08-22T06:48:45.263Z,68.75
2022-08-22T06:51:49.226Z,67.18
2022-08-22T06:54:52.925Z,67.25
2022-08-22T06:57:59.141Z,69.73
2022-08-22T07:01:24.892Z,71.05
2022-08-22T07:04:27.494Z,66.16
2022-08-22T07:07:29.462Z,61.48
2022-08-22T07:10:31.438Z,61.45
2022-08-22T07:13:33.783Z,63.61
2022-08-22T07:16:43.418Z,67.69
2022-08-22T07:19:59.508Z,69.31
2022-08-22T07:23:02.949Z,70.23
2022-08-22T07:26:11.163Z,65.56
2022-08-22T07:29:17.309Z,66.09
2022-08-22T07:32:20.258Z,68.50
2022-08-22T07:35:27.193Z,69.21
2022-08-22T07:38:42.875Z,66.58
2022-08-22T07:41:55.865Z,69.59
2022-08-22T07:45:07.961Z,69.19
2022-08-22T07:48:25.793Z,67.15
2022-08-22T07:51:32.090Z,65.83
2022-08-22T07:54:41.417Z,71.11
2022-08-22T07:57:47.544Z,72.10
2022-08-22T08:00:49.947Z,71.19
2022-08-22T08:03:56.242Z,69.81
2022-08-22T08:06:58.938Z,73.36
2022-08-22T08:10:04.348Z,72.44
2022-08-22T08:13:13.000Z,71.69
2022-08-22T08:16:20.576Z,68.58
2022-08-22T08:19:22.616Z,68.90
2022-08-22T08:22:25.193Z,63.62
2022-08-22T08:25:27.877Z,65.20
2022-08-22T08:28:36.304Z,65.45
2022-08-22T08:31:43.173Z,66.81
2022-08-22T08:34:47.138Z,67.74
2022-08-22T08:37:51.270Z,67.18
2022-08-22T08:40:53.111Z,65.84
2022-08-22T08:43:55.765Z,61.84
2022-08-22T08:47:16.343Z,60.82
2022-08-22T08:50:24.281Z,64.01
2022-08-22T08:53:45.319Z,62.11
2022-08-22T08:56:54.451Z,63.73
2022-08-22T09:00:14.828Z,62.68
2022-08-22T09:03:30.686Z,63.66
2022-08-22T09:06:33.223Z,58.30
2022-08-22T09:09:35.131Z,56.95
2022-08-22T09:12:36.989Z,56.37
2022-08-22T09:16:09.223Z,54.04
2022-08-22T09:19:30.865Z,55.95
2022-08-22T09:23:02.065Z,52.13
2022-08-22T09:26:20.886Z,49.41
2022-08-22T09:29:32.830Z,53.21
2022-08-22T09:32:41.782Z,52.42
2022-08-22T09:35:46.661Z,52.34
2022-08-22T09:38:55.855Z,52.04
2022-08-22T09:42:27.289Z,53.09
2022-08-22T09:45:32.158Z,54.71
2022-08-22T09:48:40.068Z,53.13
2022-08-22T09:51:54.470Z,53.27
2022-08-22T09:55:16.080Z,52.80
2022-08-22T09:58:41.807Z,54.16
2022-08-22T10:01:49.143Z,51.26
2022-08-22T10:04:54.653Z,57.09
2022-08-22T10:08:14.095Z,58.45
2022-08-22T10:11:51.918Z,55.41
2022-08-22T10:14:53.834Z,51.43
2022-08-22T10:18:03.877Z,52.30
2022-08-22T10:21:05.722Z,53.73
2022-08-22T10:24:25.497Z,51.84
2022-08-22T10:27:39.988Z,50.62
2022-08-22T10:31:01.517Z,55.44
2022-08-22T10:34:14.898Z,51.49
2022-08-22T10:37:23.718Z,52.26
2022-08-22T10:40:26.111Z,54.01
2022-08-22T10:43:31.178Z,53.96
2022-08-22T10:46:37.842Z,52.58
2022-08-22T10:49:44.780Z,51.51
2022-08-22T10:52:48.538Z,50.51
2022-08-22T10:55:50.879Z,50.80
2022-08-22T10:59:06.354Z,48.95
2022-08-22T11:02:17.791Z,48.06
2022-08-22T11:05:24.120Z,48.57
2022-08-22T11:08:34.992Z,44.94
2022-08-22T11:12:06.377Z,44.79
2022-08-22T11:15:24.195Z,45.99
2022-08-22T11:18:42.982Z,48.95
2022-08-22T11:21:59.711Z,49.89
2022-08-22T11:25:29.289Z,46.51
2022-08-22T11:28:53.345Z,47.17
2022-08-22T11:32:05.949Z,45.29
2022-08-22T11:35:18.901Z,46.27
2022-08-22T11:38:39.566Z,44.78
2022-08-22T11:41:43.094Z,42.03
2022-08-22T11:44:54.202Z,43.01
2022-08-22T11:47:59.729Z,38.58
2022-08-22T11:51:13.508Z,38.55
2022-08-22T11:54:20.571Z,35.58
2022-08-22T11:57:37.289Z,36.67
2022-08-22T12:00:56.701Z,42.69
2022-08-22T12:04:00.981Z,41.47
2022-08-22T12:07:08.190Z,41.87
2022-08-22T12:10:14.977Z,46.18
2022-08-22T12:13:20.730Z,44.39
2022-08-22T12:16:37.161Z,46.23
2022-08-22T12:20:16.267Z,50.81
2022-08-22T12:23:48.978Z,53.74
2022-08-22T12:27:11.731Z,52.22
2022-08-22T12:30:14.178Z,50.17
2022-08-22T12:33:34.914Z,49.86
2022-08-22T12:36:36.896Z,49.24
2022-08-22T12:39:40.320Z,50.78
2022-08-22T12:43:02.253Z,51.22
2022-08-22T12:46:16.567Z,47.56
2022-08-22T12:49:18.936Z,47.91
2022-08-22T12:52:31.214Z,50.03
2022-08-22T12:55:35.203Z,48.38
2022-08-22T12:58:42.837Z,47.78
2022-08-22T13:01:46.674Z,47.27
2022-08-22T13:04:50.847Z,47.30
2022-08-22T13:07:54.610Z,46.02
2022-08-22T13:10:58.401Z,46.65
2022-08-22T13:14:00.801Z,48.62
2022-08-22T13:17:10.277Z,51.11
2022-08-22T13:20:31.711Z,54.68
2022-08-22T13:23:39.592Z,57.14
2022-08-22T13:26:49.130Z,57.10
2022-08-22T13:29:53.379Z,57.56
2022-08-22T13:32:58.321Z,58.08
2022-08-22T13:36:06.713Z,55.16
2022-08-22T13:39:12.918Z,54.34
2022-08-22T13:42:27.731Z,52.29
2022-08-22T13:45:33.771Z,52.47
2022-08-22T13:48:47.055Z,57.20
2022-08-22T13:51:53.278Z,51.46
2022-08-22T13:55:14.474Z,51.09
2022-08-22T13:58:18.179Z,51.32
2022-08-22T14:01:32.369Z,51.29
2022-08-22T14:04:36.555Z,57.53
2022-08-22T14:07:45.790Z,56.10
2022-08-22T14:10:55.167Z,53.74
2022-08-22T14:14:01.195Z,54.24
2022-08-22T14:17:03.229Z,55.58
2022-08-22T14:20:12.453Z,56.02
2022-08-22T14:23:17.425Z,53.22
2022-08-22T14:26:33.037Z,53.62
2022-08-22T14:29:40.474Z,54.93
2022-08-22T14:32:45.648Z,57.97
2022-08-22T14:35:52.808Z,58.47
2022-08-22T14:38:57.276Z,61.69
2022-08-22T14:42:05.257Z,62.70
2022-08-22T14:45:15.052Z,63.18
2022-08-22T14:48:30.508Z,62.25
2022-08-22T14:51:33.762Z,58.25
2022-08-22T14:54:35.915Z,62.42
2022-08-22T14:57:41.648Z,66.30
2022-08-22T15:00:45.001Z,68.75
2022-08-22T15:03:54.682Z,65.64
2022-08-22T15:06:58.435Z,63.67
2022-08-22T15:10:03.589Z,62.89
2022-08-22T15:13:08.405Z,65.33
2022-08-22T15:16:16.640Z,64.79
2022-08-22T15:19:25.797Z,61.51
2022-08-22T15:22:29.482Z,65.50
2022-08-22T15:25:35.862Z,66.15
2022-08-22T15:28:52.655Z,66.94
2022-08-22T15:31:56.340Z,67.13
2022-08-22T15:35:06.042Z,65.14
2022-08-22T15:38:11.256Z,66.43
2022-08-22T15:41:31.544Z,68.09
2022-08-22T15:44:40.209Z,68.09
2022-08-22T15:47:50.284Z,66.51
2022-08-22T15:50:56.146Z,70.69
2022-08-22T15:54:04.066Z,70.15
2022-08-22T15:57:34.986Z,72.44
2022-08-22T16:00:43.242Z,69.89
2022-08-22T16:03:56.563Z,70.32
2022-08-22T16:07:00.436Z,70.84
2022-08-22T16:10:04.452Z,70.12
2022-08-22T16:13:25.242Z,68.64
2022-08-22T16:16:27.422Z,67.71
2022-08-22T16:19:31.150Z,67.90
2022-08-22T16:22:51.871Z,66.96
2022-08-22T16:25:53.882Z,66.08
2022-08-22T16:29:14.995Z,67.22
2022-08-22T16:32:23.304Z,69.62
2022-08-22T16:35:44.104Z,69.37
2022-08-22T16:38:49.894Z,68.73
2022-08-22T16:41:56.990Z,69.01
2022-08-22T16:45:18.961Z,70.28
2022-08-22T16:48:25.923Z,68.30
2022-08-22T16:51:27.787Z,68.81
2022-08-22T16:54:43.207Z,68.46
2022-08-22T16:58:05.762Z,70.68
2022-08-22T17:01:11.837Z,69.69
2022-08-22T17:04:19.515Z,68.61
2022-08-22T17:07:21.383Z,69.34
2022-08-22T17:10:26.256Z,69.77
2022-08-22T17:13:28.093Z,66.19
2022-08-22T17:16:52.048Z,69.25
2022-08-22T17:20:06.147Z,67.41
2022-08-22T17:23:37.539Z,71.49
2022-08-22T17:26:39.408Z,71.44
2022-08-22T17:29:44.270Z,76.06
2022-08-22T17:33:09.893Z,77.50
2022-08-22T17:36:26.506Z,77.64
2022-08-22T17:39:47.223Z,78.67
2022-08-22T17:42:55.173Z,73.67
2022-08-22T17:46:03.185Z,78.96
2022-08-22T17:49:11.146Z,76.46
2022-08-22T17:52:30.568Z,73.73
2022-08-22T17:55:34.064Z,74.06
2022-08-22T17:58:43.757Z,76.55
2022-08-22T18:01:50.379Z,76.10
2022-08-22T18:04:59.043Z,75.98
2022-08-22T18:08:37.617Z,75.15
2022-08-22T18:11:40.267Z,75.31
2022-08-22T18:14:45.185Z,75.50
2022-08-22T18:17:52.718Z,78.34
2022-08-22T18:21:02.480Z,75.92
2022-08-22T18:24:10.484Z,79.13
2022-08-22T18:27:34.687Z,78.98
2022-08-22T18:30:48.338Z,77.60
2022-08-22T18:33:52.105Z,79.84
2022-08-22T18:37:01.185Z,77.59
2022-08-22T18:40:05.198Z,81.33
2022-08-22T18:43:13.287Z,80.54
2022-08-22T18:46:51.660Z,80.07
2022-08-22T18:49:55.043Z,77.83
2022-08-22T18:52:57.798Z,75.76
2022-08-22T18:56:01.495Z,78.25
2022-08-22T18:59:21.986Z,79.24
2022-08-22T19:02:35.952Z,77.41
2022-08-22T19:05:40.867Z,75.82
2022-08-22T19:09:01.427Z,76.13
2022-08-22T19:12:07.444Z,78.75
2022-08-22T19:15:25.059Z,78.93
2022-08-22T19:18:30.700Z,74.73
2022-08-22T19:21:52.077Z,73.43
2022-08-22T19:25:09.299Z,77.72
2022-08-22T19:28:21.166Z,76.38
2022-08-22T19:31:23.342Z,77.08
2022-08-22T19:34:25.134Z,76.48
2022-08-22T19:37:32.457Z,76.13
2022-08-22T19:40:44.951Z,76.27
2022-08-22T19:43:46.768Z,77.36
2022-08-22T19:47:00.914Z,80.34
2022-08-22T19:50:18.079Z,78.48
2022-08-22T19:53:34.741Z,80.61
2022-08-22T19:56:50.538Z,80.80
2022-08-22T20:00:00.129Z,83.57
2022-08-22T20:03:10.668Z,83.53
2022-08-22T20:06:40.719Z,82.42
2022-08-22T20:09:51.207Z,83.19
2022-08-22T20:13:02.067Z,79.45
2022-08-22T20:16:07.589Z,79.80
2022-08-22T20:19:09.875Z,82.98
2022-08-22T20:22:38.890Z,84.27
2022-08-22T20:25:44.235Z,79.76
2022-08-22T20:28:47.439Z,79.99
2022-08-22T20:31:49.864Z,77.23
2022-08-22T20:34:54.503Z,77.54
2022-08-22T20:38:08.673Z,78.60
2022-08-22T20:41:24.186Z,84.35
2022-08-22T20:44:30.893Z,77.89
2022-08-22T20:47:40.713Z,83.42
2022-08-22T20:50:43.236Z,84.85
2022-08-22T20:53:55.892Z,82.75
2022-08-22T20:56:57.715Z,82.17
2022-08-22T21:00:09.429Z,82.54
2022-08-22T21:03:29.605Z,85.61
2022-08-22T21:06:34.910Z,79.51
2022-08-22T21:09:55.518Z,82.25
2022-08-22T21:13:01.104Z,81.57
2022-08-22T21:16:13.770Z,79.31
2022-08-22T21:19:25.879Z,76.86
2022-08-22T21:22:28.952Z,74.59
2022-08-22T21:25:30.954Z,79.70
2022-08-22T21:28:37.221Z,81.20
2022-08-22T21:31:46.516Z,80.12
2022-08-22T21:34:48.477Z,79.87
2022-08-22T21:37:50.379Z,82.54
2022-08-22T21:40:52.257Z,81.24
2022-08-22T21:43:54.237Z,81.50
2022-08-22T21:46:56.468Z,83.31
2022-08-22T21:50:07.674Z,79.42
2022-08-22T21:53:12.064Z,81.17
2022-08-22T21:56:16.686Z,81.53
2022-08-22T21:59:25.940Z,77.59
2022-08-22T22:02:47.724Z,83.45
2022-08-22T22:05:51.479Z,81.11
2022-08-22T22:08:53.340Z,81.30
2022-08-22T22:11:55.220Z,82.16
2022-08-22T22:14:57.049Z,80.82
2022-08-22T22:17:59.004Z,80.25
2022-08-22T22:21:02.551Z,77.93
2022-08-22T22:24:04.381Z,78.68
2022-08-22T22:27:06.248Z,77.97
2022-08-22T22:30:08.296Z,77.41
2022-08-22T22:33:10.443Z,78.54
2022-08-22T22:36:15.014Z,83.73
2022-08-22T22:39:16.846Z,82.09
2022-08-22T22:42:18.764Z,80.23
2022-08-22T22:45:20.894Z,77.53
2022-08-22T22:48:24.471Z,78.34
2022-08-22T22:51:26.679Z,76.61
2022-08-22T22:54:28.507Z,81.76
2022-08-22T22:57:31.733Z,79.37
2022-08-22T23:00:43.403Z,82.93
2022-08-22T23:03:45.449Z,81.70
2022-08-22T23:06:47.901Z,78.15
2022-08-22T23:09:51.192Z,78.47
2022-08-22T23:12:55.422Z,81.63
2022-08-22T23:15:57.242Z,81.32
2022-08-22T23:18:59.053Z,77.60
2022-08-22T23:22:00.962Z,78.68
2022-08-22T23:25:02.968Z,79.52
2022-08-22T23:28:04.870Z,78.96
2022-08-22T23:31:10.755Z,78.40
2022-08-22T23:34:13.458Z,83.52
2022-08-22T23:37:16.965Z,85.01
2022-08-22T23:40:18.828Z,83.08
2022-08-22T23:43:20.785Z,79.34
2022-08-22T23:46:23.365Z,79.61
2022-08-22T23:49:25.603Z,82.20
2022-08-22T23:52:27.464Z,80.87
2022-08-22T23:55:29.671Z,79.41
2022-08-22T23:58:33.537Z,77.96
